createdAt,value
2023-07-03T00:02:54.915Z,17.52
2023-07-03T00:06:11.660Z,17.54
2023-07-03T00:09:28.108Z,17.52
2023-07-03T00:12:44.995Z,17.45
2023-07-03T00:16:05.874Z,17.44
2023-07-03T00:19:24.066Z,17.54
2023-07-03T00:22:40.691Z,17.62
2023-07-03T00:25:57.363Z,17.65
2023-07-03T00:29:16.238Z,17.69
2023-07-03T00:32:32.642Z,17.74
2023-07-03T00:35:49.858Z,17.75
2023-07-03T00:39:09.280Z,17.76
2023-07-03T00:42:25.800Z,17.73
2023-07-03T00:45:45.152Z,17.69
2023-07-03T00:49:01.839Z,17.68
2023-07-03T00:55:34.194Z,17.62
2023-07-03T00:58:50.786Z,17.63
2023-07-03T01:02:12.813Z,17.66
2023-07-03T01:05:34.455Z,17.72
2023-07-03T01:08:54.348Z,17.77
2023-07-03T01:12:13.661Z,17.83
2023-07-03T01:15:37.971Z,17.87
2023-07-03T01:18:56.503Z,17.85
2023-07-03T01:25:31.029Z,17.90
2023-07-03T01:28:50.775Z,17.93
2023-07-03T01:32:11.358Z,17.95
2023-07-03T01:35:29.090Z,17.97
2023-07-03T01:38:52.764Z,17.97
2023-07-03T01:42:10.608Z,17.93
2023-07-03T01:45:28.301Z,17.94
2023-07-03T01:48:46.001Z,17.95
2023-07-03T01:52:08.334Z,17.96
2023-07-03T01:55:29.765Z,17.95
2023-07-03T01:58:50.516Z,17.94
2023-07-03T02:02:12.217Z,17.93
2023-07-03T02:05:34.380Z,17.92
2023-07-03T02:08:51.613Z,17.90
2023-07-03T02:12:08.938Z,17.86
2023-07-03T02:15:26.354Z,17.77
2023-07-03T02:18:43.008Z,17.65
2023-07-03T02:21:59.426Z,17.61
2023-07-03T02:25:18.183Z,17.60
2023-07-03T02:28:34.739Z,17.58
2023-07-03T02:31:51.861Z,17.48
2023-07-03T02:35:08.322Z,17.41
2023-07-03T02:38:24.874Z,17.35
2023-07-03T02:41:41.467Z,17.32
2023-07-03T02:44:59.740Z,17.24
2023-07-03T02:48:18.368Z,17.18
2023-07-03T02:51:36.523Z,17.17
2023-07-03T02:54:52.281Z,17.17
2023-07-03T02:58:08.541Z,17.18
2023-07-03T03:01:25.867Z,17.14
2023-07-03T03:04:42.358Z,17.07
2023-07-03T03:07:58.864Z,17.01
2023-07-03T03:11:16.144Z,16.98
2023-07-03T03:14:32.801Z,16.93
2023-07-03T03:17:49.582Z,16.87
2023-07-03T03:21:06.534Z,16.83
2023-07-03T03:24:23.393Z,16.81
2023-07-03T03:27:39.773Z,16.77
2023-07-03T03:30:56.432Z,16.70
2023-07-03T03:34:14.693Z,16.77
2023-07-03T03:37:31.181Z,16.87
2023-07-03T03:40:49.623Z,16.95
2023-07-03T03:44:06.020Z,17.00
2023-07-03T03:47:23.569Z,17.08
2023-07-03T03:50:41.032Z,17.13
2023-07-03T03:53:57.695Z,17.17
2023-07-03T03:57:16.071Z,17.21
2023-07-03T04:00:32.892Z,17.22
2023-07-03T04:03:49.456Z,17.24
2023-07-03T04:07:05.923Z,17.26
2023-07-03T04:10:22.648Z,17.30
2023-07-03T04:13:39.169Z,17.36
2023-07-03T04:16:59.314Z,17.43
2023-07-03T04:20:20.540Z,17.52
2023-07-03T04:23:37.220Z,17.58
2023-07-03T04:26:55.630Z,17.65
2023-07-03T04:30:14.029Z,17.74
2023-07-03T04:33:30.777Z,17.84
2023-07-03T04:36:49.689Z,17.91
2023-07-03T04:40:05.560Z,17.98
2023-07-03T04:43:21.941Z,18.04
2023-07-03T04:46:40.337Z,18.14
2023-07-03T04:49:57.205Z,18.20
2023-07-03T04:53:13.729Z,18.34
2023-07-03T04:56:30.861Z,18.43
2023-07-03T04:59:47.127Z,18.56
2023-07-03T05:03:05.977Z,18.66
2023-07-03T05:06:22.590Z,18.83
2023-07-03T05:09:39.136Z,18.97
2023-07-03T05:12:56.480Z,19.11
2023-07-03T05:16:13.462Z,19.20
2023-07-03T05:19:30.176Z,19.28
2023-07-03T05:26:02.268Z,19.54
2023-07-03T05:29:19.884Z,19.70
2023-07-03T05:32:36.473Z,19.81
2023-07-03T05:35:54.501Z,19.90
2023-07-03T05:39:11.388Z,20.01
2023-07-03T05:42:29.136Z,20.22
2023-07-03T05:45:45.486Z,20.33
2023-07-03T05:49:01.923Z,20.45
2023-07-03T05:52:20.652Z,20.57
2023-07-03T05:55:37.175Z,20.72
2023-07-03T05:58:54.188Z,20.84
2023-07-03T06:02:13.156Z,20.95
2023-07-03T06:05:30.059Z,21.06
2023-07-03T06:08:46.465Z,21.17
2023-07-03T06:12:03.318Z,21.29
2023-07-03T06:15:23.979Z,21.47
2023-07-03T06:18:40.396Z,21.52
2023-07-03T06:21:56.823Z,21.53
2023-07-03T06:25:16.050Z,21.62
2023-07-03T06:28:32.689Z,21.67
2023-07-03T06:31:49.490Z,21.69
2023-07-03T06:35:07.624Z,21.76
2023-07-03T06:38:24.268Z,21.82
2023-07-03T06:41:43.113Z,21.98
2023-07-03T06:45:00.027Z,22.09
2023-07-03T06:48:16.639Z,22.15
2023-07-03T06:51:37.582Z,22.23
2023-07-03T06:54:54.951Z,22.37
2023-07-03T06:58:11.892Z,22.39
2023-07-03T07:01:31.481Z,22.47
2023-07-03T07:04:49.808Z,22.56
2023-07-03T07:08:06.345Z,22.69
2023-07-03T07:11:32.415Z,22.84
2023-07-03T07:14:53.513Z,22.89
2023-07-03T07:18:10.052Z,22.95
2023-07-03T07:21:26.895Z,23.08
2023-07-03T07:24:43.630Z,23.15
2023-07-03T07:28:00.253Z,23.22
2023-07-03T07:31:17.105Z,23.34
2023-07-03T07:34:34.382Z,23.48
2023-07-03T07:37:51.402Z,23.64
2023-07-03T07:41:12.653Z,23.94
2023-07-03T07:44:29.220Z,24.03
2023-07-03T07:47:45.720Z,24.25
2023-07-03T07:51:06.172Z,24.47
2023-07-03T07:54:22.841Z,24.58
2023-07-03T07:57:39.295Z,24.95
2023-07-03T08:01:01.539Z,25.19
2023-07-03T08:04:18.312Z,25.38
2023-07-03T08:14:06.611Z,25.50
2023-07-03T08:17:23.247Z,25.42
2023-07-03T08:20:39.768Z,25.29
2023-07-03T08:23:56.930Z,25.01
2023-07-03T08:27:14.187Z,25.47
2023-07-03T08:30:31.795Z,26.13
2023-07-03T08:33:48.553Z,26.58
2023-07-03T08:37:08.147Z,26.77
2023-07-03T08:40:28.072Z,27.12
2023-07-03T08:43:48.783Z,27.64
2023-07-03T08:47:12.156Z,28.01
2023-07-03T08:50:37.077Z,28.33
2023-07-03T08:57:09.265Z,28.60
2023-07-03T09:00:28.753Z,28.08
2023-07-03T09:03:52.832Z,29.00
2023-07-03T09:07:14.830Z,29.40
2023-07-03T09:10:36.782Z,29.33
2023-07-03T09:13:59.100Z,29.15
2023-07-03T09:17:19.249Z,28.61
2023-07-03T09:20:37.656Z,29.07
2023-07-03T09:27:17.052Z,29.16
2023-07-03T09:30:34.912Z,28.81
2023-07-03T09:33:51.981Z,28.47
2023-07-03T09:37:09.500Z,28.14
2023-07-03T09:43:41.952Z,27.97
2023-07-03T09:46:58.614Z,28.12
2023-07-03T09:50:18.489Z,28.20
2023-07-03T09:56:51.644Z,28.45
2023-07-03T10:00:22.905Z,28.57
2023-07-03T10:03:42.102Z,28.60
2023-07-03T10:07:10.430Z,28.43
2023-07-03T10:13:53.759Z,28.54
2023-07-03T10:17:17.645Z,28.34
2023-07-03T10:20:39.436Z,28.27
2023-07-03T10:23:57.135Z,27.91
2023-07-03T10:27:15.707Z,28.03
2023-07-03T10:30:33.562Z,28.04
2023-07-03T10:33:54.912Z,28.06
2023-07-03T10:37:15.815Z,28.13
2023-07-03T10:40:37.666Z,28.19
2023-07-03T10:43:59.741Z,28.31
2023-07-03T10:47:25.780Z,28.24
2023-07-03T10:50:47.402Z,28.27
2023-07-03T10:54:10.019Z,28.24
2023-07-03T10:57:32.067Z,28.14
2023-07-03T11:00:54.986Z,28.14
2023-07-03T11:04:24.600Z,28.06
2023-07-03T11:07:45.726Z,27.84
2023-07-03T11:11:08.105Z,27.65
2023-07-03T11:14:30.113Z,27.73
2023-07-03T11:24:46.248Z,27.62
2023-07-03T11:28:10.834Z,27.55
2023-07-03T11:31:30.368Z,27.46
2023-07-03T11:45:34.754Z,27.10
2023-07-03T11:49:01.234Z,27.01
2023-07-03T11:52:35.564Z,26.89
2023-07-03T11:56:02.997Z,26.82
2023-07-03T11:59:31.980Z,26.81
2023-07-03T12:03:06.422Z,26.66
2023-07-03T12:06:57.315Z,26.57
2023-07-03T12:11:08.704Z,26.51
2023-07-03T12:14:59.214Z,26.46
2023-07-03T12:18:20.996Z,26.44
2023-07-03T12:21:49.655Z,26.40
2023-07-03T12:25:20.378Z,26.32
2023-07-03T12:31:46.891Z,26.22
2023-07-03T12:35:25.196Z,26.19
2023-07-03T12:41:58.520Z,26.14
2023-07-03T12:45:34.184Z,26.09
2023-07-03T12:48:50.663Z,26.07
2023-07-03T12:52:07.276Z,26.06
2023-07-03T12:58:40.285Z,26.00
2023-07-03T13:02:01.080Z,26.00
2023-07-03T13:05:22.933Z,25.97
2023-07-03T13:08:39.890Z,25.91
2023-07-03T13:11:57.582Z,25.85
2023-07-03T13:15:18.083Z,25.80
2023-07-03T13:18:34.834Z,25.75
2023-07-03T13:21:51.456Z,25.68
2023-07-03T13:28:31.114Z,25.72
2023-07-03T13:31:52.635Z,25.67
2023-07-03T13:35:13.274Z,25.55
2023-07-03T13:43:34.963Z,25.57
2023-07-03T13:46:54.341Z,25.59
2023-07-03T13:50:11.444Z,25.59
2023-07-03T13:53:28.608Z,25.53
2023-07-03T14:00:00.903Z,25.54
2023-07-03T14:03:20.079Z,25.58
2023-07-03T14:06:42.614Z,25.61
2023-07-03T14:13:15.955Z,25.63
2023-07-03T14:16:33.280Z,25.62
2023-07-03T14:19:49.745Z,25.58
2023-07-03T14:23:06.407Z,25.55
2023-07-03T14:26:24.811Z,25.57
2023-07-03T14:29:41.230Z,25.54
2023-07-03T14:32:58.376Z,25.50
2023-07-03T14:36:16.118Z,25.46
2023-07-03T14:42:48.585Z,25.40
2023-07-03T14:46:05.369Z,25.38
2023-07-03T14:49:24.161Z,25.37
2023-07-03T14:52:45.051Z,25.33
2023-07-03T14:59:18.329Z,25.27
2023-07-03T15:02:33.099Z,25.24
2023-07-03T15:05:50.069Z,25.23
2023-07-03T15:13:37.489Z,25.13
2023-07-03T15:16:54.000Z,25.09
2023-07-03T15:20:13.013Z,25.10
2023-07-03T15:23:30.034Z,25.07
2023-07-03T15:30:02.889Z,25.05
2023-07-03T15:33:19.379Z,24.99
2023-07-03T15:36:36.037Z,24.95
2023-07-03T15:39:52.862Z,24.95
2023-07-03T15:43:09.317Z,24.95
2023-07-03T15:46:26.845Z,24.97
2023-07-03T15:49:41.827Z,24.95
2023-07-03T15:53:01.675Z,24.93
2023-07-03T15:56:32.235Z,24.92
2023-07-03T15:59:50.917Z,24.91
2023-07-03T16:03:10.393Z,24.89
2023-07-03T16:06:31.206Z,24.90
2023-07-03T16:09:47.569Z,24.88
2023-07-03T16:13:05.684Z,24.86
2023-07-03T16:16:26.275Z,24.85
2023-07-03T16:19:42.890Z,24.85
2023-07-03T16:22:59.307Z,24.82
2023-07-03T16:29:31.286Z,24.77
2023-07-03T16:32:48.178Z,24.75
2023-07-03T16:36:10.901Z,24.69
2023-07-03T16:39:27.818Z,24.66
2023-07-03T16:42:44.253Z,24.60
2023-07-03T16:46:02.902Z,24.55
2023-07-03T16:49:17.252Z,24.48
2023-07-03T16:52:33.685Z,24.45
2023-07-03T16:55:50.759Z,24.41
2023-07-03T16:59:09.134Z,24.39
2023-07-03T17:02:25.927Z,24.30
2023-07-03T17:05:43.598Z,24.24
2023-07-03T17:09:00.213Z,24.21
2023-07-03T17:12:18.139Z,24.16
2023-07-03T17:15:34.746Z,24.12
2023-07-03T17:18:52.412Z,24.08
2023-07-03T17:22:08.993Z,24.01
2023-07-03T17:28:41.905Z,23.88
2023-07-03T17:32:02.088Z,23.78
2023-07-03T17:35:19.235Z,23.69
2023-07-03T17:38:38.205Z,23.67
2023-07-03T17:41:55.157Z,23.68
2023-07-03T17:45:14.184Z,23.58
2023-07-03T17:48:31.094Z,23.49
2023-07-03T17:51:47.591Z,23.43
2023-07-03T17:55:04.205Z,23.35
2023-07-03T17:58:22.474Z,23.29
2023-07-03T18:01:40.417Z,23.19
2023-07-03T18:04:56.933Z,23.15
2023-07-03T18:08:14.703Z,23.03
2023-07-03T18:14:47.561Z,22.87
2023-07-03T18:18:04.653Z,22.76
2023-07-03T18:21:23.351Z,22.67
2023-07-03T18:24:42.312Z,22.62
2023-07-03T18:27:59.709Z,22.57
2023-07-03T18:31:16.909Z,22.52
2023-07-03T18:34:33.989Z,22.40
2023-07-03T18:37:50.733Z,22.27
2023-07-03T18:44:23.590Z,22.13
2023-07-03T18:47:43.524Z,22.06
2023-07-03T18:51:00.142Z,21.95
2023-07-03T18:54:17.204Z,21.89
2023-07-03T18:57:35.556Z,21.84
2023-07-03T19:00:52.667Z,21.78
2023-07-03T19:04:09.559Z,21.77
2023-07-03T19:07:27.291Z,21.73
2023-07-03T19:14:12.232Z,21.57
2023-07-03T19:17:30.511Z,21.43
2023-07-03T19:20:47.961Z,21.33
2023-07-03T19:24:05.257Z,21.32
2023-07-03T19:30:39.811Z,21.26
2023-07-03T19:37:18.776Z,21.18
2023-07-03T19:43:53.927Z,21.13
2023-07-03T19:47:11.750Z,21.10
2023-07-03T19:51:07.453Z,21.03
2023-07-03T19:54:24.576Z,20.93
2023-07-03T19:57:46.096Z,20.87
2023-07-03T20:01:13.044Z,20.93
2023-07-03T20:04:33.601Z,20.84
2023-07-03T20:07:50.886Z,20.77
2023-07-03T20:11:11.810Z,20.78
2023-07-03T20:14:28.596Z,20.74
2023-07-03T20:17:45.259Z,20.77
2023-07-03T20:21:04.904Z,20.80
2023-07-03T20:24:22.574Z,20.78
2023-07-03T20:27:41.105Z,20.79
2023-07-03T20:30:59.964Z,20.79
2023-07-03T20:34:14.178Z,20.81
2023-07-03T20:37:31.204Z,20.84
2023-07-03T20:40:47.847Z,20.85
2023-07-03T20:44:07.015Z,20.87
2023-07-03T20:47:23.993Z,20.89
2023-07-03T20:50:42.299Z,20.96
2023-07-03T20:54:07.861Z,21.00
2023-07-03T20:57:24.321Z,20.76
2023-07-03T21:00:41.108Z,20.76
2023-07-03T21:04:00.520Z,20.74
2023-07-03T21:07:17.891Z,20.74
2023-07-03T21:10:34.490Z,20.75
2023-07-03T21:13:52.733Z,20.71
2023-07-03T21:17:09.528Z,20.75
2023-07-03T21:20:26.282Z,20.78
2023-07-03T21:23:42.762Z,20.84
2023-07-03T21:26:59.924Z,20.77
2023-07-03T21:30:19.331Z,20.85
2023-07-03T21:33:36.758Z,20.84
2023-07-03T21:36:53.688Z,20.70
2023-07-03T21:40:11.802Z,20.75
2023-07-03T21:43:30.032Z,20.74
2023-07-03T21:46:47.233Z,20.73
2023-07-03T21:50:03.783Z,20.55
2023-07-03T21:53:20.520Z,20.56
2023-07-03T21:56:40.335Z,20.57
2023-07-03T21:59:59.206Z,20.59
2023-07-03T22:03:16.510Z,20.60
2023-07-03T22:06:35.394Z,20.62
2023-07-03T22:09:49.624Z,20.60
2023-07-03T22:13:06.686Z,20.58
2023-07-03T22:16:25.789Z,20.51
2023-07-03T22:19:45.449Z,20.50
2023-07-03T22:23:01.756Z,20.40
2023-07-03T22:26:18.498Z,20.36
2023-07-03T22:29:35.050Z,20.33
2023-07-03T22:32:51.828Z,20.32
2023-07-03T22:36:08.777Z,20.29
2023-07-03T22:39:25.395Z,20.26
2023-07-03T22:42:42.164Z,20.25
2023-07-03T22:45:58.663Z,20.24
2023-07-03T22:49:24.593Z,20.19
2023-07-03T22:52:33.521Z,20.12
2023-07-03T22:55:51.310Z,20.14
2023-07-03T22:59:09.117Z,20.21
2023-07-03T23:02:30.423Z,20.21
2023-07-03T23:05:53.270Z,20.25
2023-07-03T23:09:10.547Z,20.33
2023-07-03T23:12:27.181Z,20.26
2023-07-03T23:15:43.769Z,20.25
2023-07-03T23:19:00.116Z,20.33
2023-07-03T23:22:17.279Z,20.39
2023-07-03T23:25:34.316Z,20.43
2023-07-03T23:28:52.245Z,20.46
2023-07-03T23:32:09.527Z,20.46
2023-07-03T23:35:26.038Z,20.47
2023-07-03T23:38:44.858Z,20.43
2023-07-03T23:41:58.996Z,20.40
2023-07-03T23:45:17.488Z,20.31
2023-07-03T23:48:33.764Z,20.32
2023-07-03T23:51:50.944Z,20.29
2023-07-03T23:55:07.464Z,20.22
2023-07-03T23:58:24.452Z,20.16
